Weather observations for the past three days for
University Airport
Imperial (Metric)
Date Time (pdt) Wind (mph) Vis. (mi.) Weather Sky Cond. Temperature (ºF) Relative Humidity Wind Chill (°F) Heat Index (°F) Pressure Precipitation (in)
Air Dwpt 6 hour altimeter (in) sea level (mb) 1 hr 3 hr 6 hr
Max. Min.
03 12:20 S 9 10.00 NULL NULL 66.2 48.2 52% 29.88 0.0
03 12:00 S 9 G 16 10.00 NULL NULL 66.2 48.2 52% 29.88 0.0
03 11:40 SW 10 10.00 NULL NULL 64.4 48.2 56% 29.88 0.0
03 11:20 S 10 10.00 NULL NULL 62.6 50 64% 29.89 0.0
03 11:00 S 8 10.00 NULL NULL 62.6 50 64% 29.89 0.0
03 10:35 S 9 10.00 NULL NULL 62.6 50 64% 29.88 0.0
03 10:20 S 6 10.00 NULL NULL 60.8 50 68% 29.88 0.0
03 09:55 SW 8 10.00 NULL NULL 59 50 72% 29.86 0.0
03 09:40 S 10 10.00 NULL NULL 59 50 72% 29.86 0.0
03 09:15 SW 9 10.00 NULL NULL 59 50 72% 29.87 0.0
03 09:00 SW 7 10.00 NULL NULL 57.2 50 77% 29.86 0.0
03 08:35 SW 7 10.00 NULL NULL 57.2 51.8 82% 29.86 0.0
03 08:20 S 6 10.00 NULL NULL 55.4 51.8 88% 29.86 0.0
03 08:00 Calm 10.00 NULL NULL 55.4 51.8 88% 29.85 0.0
03 07:35 Calm 10.00 NULL NULL 53.6 51.8 94% 29.84 0.0
03 07:20 Calm 10.00 NULL NULL 53.6 51.8 94% 29.83 0.0
03 06:55 Calm 10.00 NULL NULL 53.6 51.8 94% 29.83 0.0
03 06:40 Calm 10.00 NULL NULL 53.6 51.8 94% 29.82 0.0
03 06:15 Calm 10.00 NULL NULL 53.6 51.8 94% 29.81 0.0
03 06:00 Calm 10.00 NULL NULL 53.6 51.8 94% 29.81 0.0
03 05:20 Calm 10.00 NULL NULL 53.6 51.8 94% 29.8 0.0
03 04:55 Calm 10.00 NULL NULL 53.6 51.8 94% 29.8 0.0
03 04:40 Calm 10.00 NULL NULL 53.6 51.8 94% 29.8 0.0
03 04:15 Calm 10.00 NULL NULL 53.6 51.8 94% 29.81 0.0
03 04:00 Calm 10.00 NULL NULL 53.6 51.8 94% 29.81 0.0
03 03:40 Calm 10.00 NULL NULL 53.6 51.8 94% 29.8 0.0
03 03:20 Calm 10.00 NULL NULL 53.6 51.8 94% 29.8 0.0
03 03:00 Calm 10.00 NULL NULL 53.6 50 88% 29.8 0.0
03 02:35 Calm 10.00 NULL NULL 53.6 50 88% 29.81 0.0
03 02:20 SW 3 10.00 NULL NULL 53.6 50 88% 29.81 0.0
03 01:55 Calm 10.00 NULL NULL 53.6 50 88% 29.82 0.0
03 01:40 Calm 10.00 NULL NULL 53.6 50 88% 29.82 0.0
03 01:15 Calm 10.00 NULL NULL 53.6 50 88% 29.83 0.0
03 01:00 Calm 10.00 NULL NULL 53.6 50 88% 29.83 0.0
03 00:35 Calm 10.00 NULL NULL 53.6 50 88% 29.82 0.0
03 00:15 Calm 10.00 NULL NULL 53.6 50 88% 29.83 0.0
02 23:55 S 5 10.00 NULL NULL 55.4 50 82% 29.83 0.0
02 23:40 Calm 10.00 NULL NULL 55.4 50 82% 29.84 0.0
02 23:15 Calm 10.00 NULL NULL 55.4 51.8 88% 29.84 0.0
02 23:00 Calm 10.00 NULL NULL 55.4 51.8 88% 29.84 0.0
02 22:35 S 7 10.00 NULL NULL 55.4 51.8 88% 29.84 0.0
02 22:15 S 3 10.00 NULL NULL 55.4 51.8 88% 29.84 0.0
02 22:00 S 6 10.00 NULL NULL 55.4 51.8 88% 29.84 0.0
02 21:35 S 7 10.00 NULL NULL 57.2 51.8 82% 29.83 0.0
02 21:20 S 5 10.00 NULL NULL 57.2 51.8 82% 29.83 0.0
02 20:55 S 7 10.00 NULL NULL 57.2 50 77% 29.82 0.0
02 20:40 S 8 10.00 NULL NULL 59 50 72% 29.82 0.0
02 20:15 S 8 10.00 NULL NULL 59 51.8 77% 29.81 0.0
02 20:00 S 7 10.00 NULL NULL 60.8 51.8 72% 29.81 0.0
02 19:35 S 8 10.00 NULL NULL 62.6 53.6 73% 29.81 0.0
02 19:15 S 12 10.00 NULL NULL 62.6 53.6 73% 29.81 0.0
02 18:55 S 12 G 17 10.00 NULL NULL 64.4 53.6 68% 29.81 0.0
02 18:40 S 12 10.00 NULL NULL 66.2 53.6 64% 29.8 0.0
02 18:15 S 10 10.00 NULL NULL 66.2 53.6 64% 29.81 0.0
02 17:55 S 12 G 17 10.00 NULL NULL 66.2 53.6 64% 29.8 0.0
02 17:35 S 16 10.00 NULL NULL 68 53.6 60% 29.8 0.0
02 17:15 S 13 G 20 10.00 NULL NULL 68 53.6 60% 29.81 0.0
02 17:00 S 14 G 20 10.00 NULL NULL 69.8 53.6 57% 29.81 0.0
02 16:35 S 14 10.00 NULL NULL 69.8 53.6 57% 29.82 0.0
02 16:20 S 12 G 20 10.00 NULL NULL 71.6 53.6 53% 29.82 0.0
02 15:55 S 17 G 22 10.00 NULL NULL 71.6 53.6 53% 29.83 0.0
02 15:40 S 13 10.00 NULL NULL 68 53.6 60% 29.84 0.0
02 15:15 S 13 10.00 NULL NULL 69.8 53.6 57% 29.85 0.0
02 14:55 S 14 G 18 10.00 NULL NULL 71.6 53.6 53% 29.86 0.0
02 14:40 S 9 G 18 10.00 NULL NULL 71.6 53.6 53% 29.86 0.0
02 14:15 S 13 G 16 10.00 NULL NULL 69.8 51.8 53% 29.87 0.0
02 13:55 S 9 G 18 10.00 NULL NULL 69.8 53.6 57% 29.88 0.0
02 13:40 S 10 G 18 10.00 NULL NULL 68 51.8 56% 29.88 0.0
02 13:15 S 15 G 18 10.00 NULL NULL 66.2 53.6 64% 29.89 0.0
02 13:00 S 15 G 18 10.00 NULL NULL 66.2 53.6 64% 29.89 0.0
02 12:35 S 12 10.00 NULL NULL 64.4 53.6 68% 29.9 0.0
02 12:20 S 14 10.00 NULL NULL 64.4 53.6 68% 29.9 0.0
02 11:55 S 12 10.00 NULL NULL 64.4 51.8 64% 29.89 0.0
02 11:40 S 12 10.00 NULL NULL 64.4 53.6 68% 29.89 0.0
02 11:15 S 9 10.00 NULL NULL 62.6 55.4 77% 29.89 0.0
02 10:55 S 9 10.00 NULL NULL 60.8 53.6 77% 29.89 0.0
02 10:35 SW 10 10.00 NULL NULL 59 55.4 88% 29.9 0.0
02 10:20 S 6 10.00 NULL NULL 59 55.4 88% 29.9 0.0
02 10:00 S 8 10.00 NULL NULL 59 53.6 82% 29.9 0.0
02 09:35 S 9 10.00 NULL NULL 59 53.6 82% 29.89 0.0
02 09:15 S 9 10.00 NULL NULL 59 53.6 82% 29.88 0.0
02 08:55 S 10 10.00 NULL NULL 57.2 53.6 88% 29.87 0.0
02 08:40 S 12 G 16 10.00 NULL NULL 57.2 53.6 88% 29.87 0.0
02 08:15 S 12 10.00 NULL NULL 57.2 53.6 88% 29.87 0.0
02 08:00 S 13 10.00 NULL NULL 57.2 53.6 88% 29.88 0.0
02 07:35 S 8 10.00 NULL NULL 57.2 53.6 88% 29.86 0.0
02 07:20 S 8 10.00 NULL NULL 55.4 53.6 94% 29.86 0.0
02 06:55 S 9 10.00 NULL NULL 55.4 53.6 94% 29.85 0.0
02 06:40 S 8 10.00 NULL NULL 53.6 53.6 100% 29.85 0.0
02 06:15 Calm 10.00 NULL NULL 53.6 53.6 100% 29.84 0.0
02 05:55 S 3 10.00 NULL NULL 53.6 53.6 100% 29.84 0.0
02 05:40 Calm 10.00 NULL NULL 53.6 53.6 100% 29.84 0.0
02 05:15 Calm 10.00 NULL NULL 53.6 53.6 100% 29.83 0.0
02 05:00 Calm 10.00 NULL NULL 53.6 53.6 100% 29.83 0.0
02 04:35 Calm 10.00 NULL NULL 53.6 53.6 100% 29.83 0.0
02 04:15 Calm 10.00 NULL NULL 53.6 53.6 100% 29.83 0.0
02 03:55 Calm 10.00 NULL NULL 53.6 53.6 100% 29.84 0.0
02 03:40 Calm 10.00 NULL NULL 55.4 53.6 94% 29.84 0.0
02 03:15 Calm 10.00 NULL NULL 55.4 53.6 94% 29.84 0.0
02 03:00 S 5 10.00 NULL NULL 55.4 53.6 94% 29.84 0.0
02 02:35 Calm 10.00 NULL NULL 55.4 53.6 94% 29.85 0.0
02 02:20 Calm 10.00 NULL NULL 55.4 53.6 94% 29.85 0.0
02 01:55 Calm 10.00 NULL NULL 55.4 53.6 94% 29.85 0.0
02 01:40 Calm 10.00 NULL NULL 55.4 53.6 94% 29.85 0.0
02 01:20 Calm 10.00 NULL NULL 55.4 53.6 94% 29.85 0.0
02 00:55 S 3 10.00 NULL NULL 57.2 53.6 88% 29.85 0.0
02 00:40 S 6 10.00 NULL NULL 57.2 53.6 88% 29.86 0.0
02 00:15 S 6 10.00 NULL NULL 57.2 55.4 94% 29.86 0.0
02 00:00 Calm 10.00 NULL NULL 57.2 55.4 94% 29.86 0.0
01 23:35 S 5 10.00 NULL NULL 57.2 55.4 94% 29.85 0.0
01 23:15 Calm 10.00 NULL NULL 59 55.4 88% 29.86 0.0
01 22:55 Calm 10.00 NULL NULL 59 55.4 88% 29.86 0.0
01 22:40 Calm 10.00 NULL NULL 59 57.2 94% 29.86 0.0
01 22:15 Calm 10.00 NULL NULL 60.8 57.2 88% 29.86 0.0
01 22:00 Calm 10.00 NULL NULL 60.8 57.2 88% 29.86 0.0
01 21:35 Calm 10.00 NULL NULL 62.6 57.2 83% 29.85 0.0
01 21:15 Calm 10.00 NULL NULL 62.6 57.2 83% 29.85 0.0
01 21:00 Calm 10.00 NULL NULL 62.6 59 88% 29.84 0.0
01 20:35 Calm 10.00 NULL NULL 64.4 59 83% 29.83 0.0
01 20:20 Calm 10.00 NULL NULL 66.2 59 78% 29.83 0.0
01 19:55 Calm 10.00 NULL NULL 68 60.8 78% 29.83 0.0
01 19:35 Calm 10.00 NULL NULL 71.6 60.8 69% 29.83 0.0
01 19:20 Calm 10.00 NULL NULL 71.6 62.6 73% 29.82 0.0
01 18:55 Calm 10.00 NULL NULL 75.2 62.6 65% 77 29.83 0.0
01 18:40 Calm 10.00 NULL NULL 75.2 62.6 65% 77 29.83 0.0
01 18:15 Calm 10.00 NULL NULL 77 60.8 57% 79 29.82 0.0
01 18:00 Calm 10.00 NULL NULL 77 59 54% 79 29.83 0.0
01 17:35 Calm 10.00 NULL NULL 77 59 54% 79 29.83 0.0
01 17:20 S 6 10.00 NULL NULL 78.8 57.2 48% 80 29.84 0.0
01 16:55 S 8 10.00 NULL NULL 80.6 57.2 45% 81 29.84 0.0
01 16:40 S 5 10.00 NULL NULL 80.6 57.2 45% 81 29.84 0.0
01 16:15 S 9 10.00 NULL NULL 80.6 57.2 45% 81 29.85 0.0
01 16:00 S 6 10.00 NULL NULL 80.6 55.4 42% 81 29.85 0.0
01 15:35 S 6 10.00 NULL NULL 80.6 57.2 45% 81 29.87 0.0
01 15:15 S 3 10.00 NULL NULL 80.6 55.4 42% 81 29.88 0.0
01 14:55 S 7 10.00 NULL NULL 80.6 57.2 45% 81 29.89 0.0
01 14:35 Calm 10.00 NULL NULL 80.6 57.2 45% 81 29.9 0.0
01 14:20 S 7 10.00 NULL NULL 80.6 57.2 45% 81 29.9 0.0
01 13:55 Calm 10.00 NULL NULL 78.8 57.2 48% 80 29.9 0.0
01 13:40 Calm 10.00 NULL NULL 78.8 57.2 48% 80 29.9 0.0
01 13:15 Calm 7.00 NULL NULL 77 57.2 51% 79 29.91 0.0
01 12:55 Calm 10.00 NULL NULL 77 57.2 51% 79 29.92 0.0
01 12:35 Calm 10.00 NULL NULL 77 57.2 51% 79 29.93 0.0
01 12:20 Calm 10.00 NULL NULL 75.2 55.4 50% 78 29.93 0.0
01 11:55 Calm 10.00 NULL NULL 73.4 55.4 53% 29.94 0.0
01 11:40 Calm 10.00 NULL NULL 73.4 55.4 53% 29.94 0.0
01 11:15 Calm 10.00 NULL NULL 71.6 53.6 53% 29.95 0.0
01 10:55 Calm 10.00 NULL NULL 71.6 55.4 57% 29.95 0.0
01 10:40 Calm 10.00 NULL NULL 69.8 55.4 60% 29.95 0.0
01 10:15 Calm 10.00 NULL NULL 68 55.4 64% 29.94 0.0
01 10:00 Calm 10.00 NULL NULL 66.2 55.4 68% 29.95 0.0
01 09:35 Calm 10.00 NULL NULL 64.4 55.4 73% 29.95 0.0
01 09:20 Calm 10.00 NULL NULL 62.6 55.4 77% 29.95 0.0
01 08:55 Calm 10.00 NULL NULL 62.6 55.4 77% 29.95 0.0
01 08:40 Calm 10.00 NULL NULL 59 55.4 88% 29.94 0.0
01 08:15 Calm 10.00 NULL NULL 57.2 55.4 94% 29.94 0.0
01 07:55 Calm 10.00 NULL NULL 55.4 55.4 100% 29.93 0.0
01 07:35 Calm 10.00 NULL NULL 53.6 53.6 100% 29.93 0.0
01 07:20 Calm 9.00 NULL NULL 53.6 53.6 100% 29.92 0.0
01 07:00 Calm 9.00 NULL NULL 53.6 53.6 100% 29.91 0.0
01 06:35 Calm 10.00 NULL NULL 50 50 100% 29.91 0.0
01 06:15 Calm 10.00 NULL NULL 50 50 100% 29.9 0.0
01 05:55 Calm 10.00 NULL NULL 51.8 51.8 100% 29.9 0.0
01 05:35 Calm 10.00 NULL NULL 51.8 51.8 100% 29.89 0.0
01 05:20 Calm 10.00 NULL NULL 51.8 51.8 100% 29.89 0.0
01 04:55 Calm 10.00 NULL NULL 53.6 51.8 94% 29.89 0.0
01 04:40 Calm 10.00 NULL NULL 53.6 53.6 100% 29.88 0.0
01 04:15 Calm 10.00 NULL NULL 53.6 53.6 100% 29.88 0.0
01 04:00 Calm 10.00 NULL NULL 53.6 53.6 100% 29.88 0.0
01 03:35 Calm 10.00 NULL NULL 53.6 53.6 100% 29.88 0.0
01 03:15 Calm 10.00 NULL NULL 53.6 53.6 100% 29.87 0.0
01 02:55 Calm 10.00 NULL NULL 53.6 53.6 100% 29.87 0.0
01 02:35 Calm 10.00 NULL NULL 53.6 53.6 100% 29.88 0.0
01 02:15 Calm 10.00 NULL NULL 55.4 53.6 94% 29.88 0.0
01 01:55 Calm 10.00 NULL NULL 55.4 53.6 94% 29.88 0.0
01 01:40 Calm 10.00 NULL NULL 55.4 53.6 94% 29.88 0.0
01 01:15 Calm 10.00 NULL NULL 55.4 53.6 94% 29.88 0.0
01 01:00 Calm 10.00 NULL NULL 55.4 53.6 94% 29.88 0.0
01 00:35 Calm 10.00 NULL NULL 57.2 53.6 88% 29.89 0.0
01 00:20 Calm 10.00 NULL NULL 57.2 53.6 88% 29.88 0.0
30 23:55 Calm 10.00 NULL NULL 57.2 51.8 82% 29.88 0.0
30 23:40 Calm 10.00 NULL NULL 57.2 51.8 82% 29.88 0.0
30 23:15 Calm 10.00 NULL NULL 57.2 51.8 82% 29.88 0.0
30 23:00 Calm 10.00 NULL NULL 59 51.8 77% 29.88 0.0
30 22:35 Calm 10.00 NULL NULL 59 53.6 82% 29.88 0.0
30 22:15 Calm 10.00 NULL NULL 60.8 53.6 77% 29.88 0.0
30 21:55 Calm 10.00 NULL NULL 62.6 53.6 73% 29.88 0.0
30 21:35 Calm 10.00 NULL NULL 62.6 55.4 77% 29.87 0.0
30 21:20 Calm 10.00 NULL NULL 62.6 55.4 77% 29.86 0.0
30 20:55 Calm 10.00 NULL NULL 66.2 57.2 73% 29.86 0.0
30 20:40 Calm 10.00 NULL NULL 66.2 57.2 73% 29.85 0.0
30 20:15 Calm 10.00 NULL NULL 69.8 57.2 64% 29.85 0.0
30 20:00 Calm 10.00 NULL NULL 71.6 59 65% 29.84 0.0
30 19:35 Calm 10.00 NULL NULL 75.2 59 57% 78 29.84 0.0
30 19:20 Calm 10.00 NULL NULL 77 59 54% 79 29.83 0.0
30 18:55 S 6 10.00 NULL NULL 78.8 59 51% 80 29.83 0.0
30 18:40 S 6 10.00 NULL NULL 80.6 59 48% 81 29.83 0.0
30 18:15 S 6 10.00 NULL NULL 82.4 59 45% 82 29.83 0.0
30 17:55 Calm 10.00 NULL NULL 82.4 57.2 42% 82 29.83 0.0
30 17:35 S 6 10.00 NULL NULL 82.4 57.2 42% 82 29.84 0.0
30 17:15 S 5 10.00 NULL NULL 82.4 57.2 42% 82 29.84 0.0
30 16:35 S 5 10.00 NULL NULL 82.4 55.4 40% 82 29.85 0.0
30 16:20 S 5 10.00 NULL NULL 82.4 55.4 40% 82 29.85 0.0
30 15:55 S 5 10.00 NULL NULL 84.2 53.6 35% 83 29.86 0.0
30 15:40 Calm 10.00 NULL NULL 82.4 50 32% 81 29.87 0.0
30 15:15 Calm 10.00 NULL NULL 82.4 50 32% 81 29.88 0.0
30 15:00 Calm 1.50 NULL NULL 82.4 51.8 35% 81 29.88 0.0
30 14:35 Calm 10.00 NULL NULL 80.6 50 34% 80 29.89 0.0
30 14:20 Calm 10.00 NULL NULL 80.6 50 34% 80 29.9 0.0
30 13:55 Calm 10.00 NULL NULL 80.6 50 34% 80 29.9 0.0
30 13:35 N 6 10.00 NULL NULL 80.6 50 34% 80 29.91 0.0
30 13:15 Calm 10.00 NULL NULL 77 50 39% 78 29.91 0.0
30 12:55 N 5 10.00 NULL NULL 77 50 39% 78 29.92 0.0
30 12:40 Calm 10.00 NULL NULL 75.2 48.2 39% 77 29.93 0.0
Date Time (pdt) Wind (mph) Vis. (mi.) Weather Sky Cond. Air Dwpt Max. Min. Relative Humidity Wind Chill (°F) Heat Index (°F) altimeter (in) sea level (mb) 1 hr 3 hr 6 hr
6 hour
Temperature (ºF) Pressure Precipitation (in)